createdAt,value
2022-08-22T00:00:22.040Z,6.88
2022-08-22T00:02:59.616Z,6.38
2022-08-22T00:03:02.739Z,4.68
2022-08-22T00:06:10.694Z,5.10
2022-08-22T00:09:04.294Z,6.68
2022-08-22T00:11:49.205Z,6.05
2022-08-22T00:14:18.881Z,5.35
2022-08-22T00:17:08.878Z,13.10
2022-08-22T00:20:03.248Z,6.82
2022-08-22T00:22:50.368Z,4.77
2022-08-22T00:25:49.334Z,10.05
2022-08-22T00:28:23.342Z,10.27
2022-08-22T00:30:56.367Z,9.57
2022-08-22T00:33:34.418Z,7.37
2022-08-22T00:36:24.008Z,12.93
2022-08-22T00:39:05.983Z,11.80
2022-08-22T00:41:50.927Z,14.98
2022-08-22T00:44:35.799Z,9.00
2022-08-22T00:47:11.743Z,9.70
2022-08-22T00:50:12.820Z,8.32
2022-08-22T00:53:11.867Z,7.88
2022-08-22T00:56:09.263Z,13.50
2022-08-22T00:59:18.083Z,7.03
2022-08-22T01:02:11.269Z,7.93
2022-08-22T01:05:07.610Z,6.00
2022-08-22T01:07:56.162Z,9.15
2022-08-22T01:10:50.191Z,6.43
2022-08-22T01:13:44.698Z,7.88
2022-08-22T01:16:33.377Z,6.13
2022-08-22T01:19:33.660Z,6.57
2022-08-22T01:22:18.509Z,5.47
2022-08-22T01:25:19.996Z,5.67
2022-08-22T01:27:59.075Z,6.07
2022-08-22T01:31:15.120Z,6.13
2022-08-22T01:34:15.006Z,5.87
2022-08-22T01:36:51.168Z,7.20
2022-08-22T01:39:46.077Z,14.45
2022-08-22T01:42:48.723Z,6.13
2022-08-22T01:45:47.659Z,6.53
2022-08-22T01:48:31.510Z,5.95
2022-08-22T01:51:13.015Z,7.10
2022-08-22T01:53:48.871Z,11.20
2022-08-22T01:56:19.591Z,11.10
2022-08-22T01:59:42.140Z,12.10
2022-08-22T02:02:31.254Z,10.53
2022-08-22T02:05:19.023Z,10.10
2022-08-22T02:08:05.358Z,10.93
2022-08-22T02:11:04.834Z,8.57
2022-08-22T02:14:03.561Z,12.50
2022-08-22T02:16:43.601Z,11.83
2022-08-22T02:19:16.426Z,9.60
2022-08-22T02:22:04.779Z,8.53
2022-08-22T02:24:37.976Z,7.73
2022-08-22T02:27:24.006Z,11.17
2022-08-22T02:30:04.018Z,10.53
2022-08-22T02:32:37.351Z,5.43
2022-08-22T02:35:10.809Z,5.27
2022-08-22T02:37:50.242Z,8.37
2022-08-22T02:40:26.154Z,6.47
2022-08-22T02:43:24.291Z,5.67
2022-08-22T02:46:00.246Z,5.30
2022-08-22T02:48:45.005Z,4.93
2022-08-22T02:51:20.135Z,6.20
2022-08-22T02:53:49.757Z,6.63
2022-08-22T02:56:23.526Z,6.57
2022-08-22T02:58:53.532Z,15.30
2022-08-22T03:01:32.479Z,10.93
2022-08-22T03:04:30.093Z,10.50
2022-08-22T03:07:18.597Z,9.77
2022-08-22T03:10:03.785Z,8.90
2022-08-22T03:12:33.607Z,9.33
2022-08-22T03:15:08.916Z,8.33
2022-08-22T03:18:21.595Z,9.63
2022-08-22T03:20:59.151Z,5.90
2022-08-22T03:23:43.185Z,8.87
2022-08-22T03:26:30.992Z,10.47
2022-08-22T03:29:06.190Z,6.23
2022-08-22T03:31:33.343Z,7.60
2022-08-22T03:34:22.344Z,7.27
2022-08-22T03:37:11.885Z,6.13
2022-08-22T03:39:50.879Z,6.90
2022-08-22T03:42:23.548Z,10.70
2022-08-22T03:45:31.982Z,5.83
2022-08-22T03:48:04.613Z,8.43
2022-08-22T03:50:58.843Z,6.77
2022-08-22T03:53:44.358Z,12.67
2022-08-22T03:56:30.526Z,7.07
2022-08-22T03:59:42.604Z,7.13
2022-08-22T04:02:33.439Z,9.00
2022-08-22T04:05:35.848Z,6.27
2022-08-22T04:08:18.187Z,11.93
2022-08-22T04:11:03.952Z,9.73
2022-08-22T04:14:03.593Z,15.30
2022-08-22T04:17:08.980Z,8.97
2022-08-22T04:19:48.569Z,7.17
2022-08-22T04:22:52.513Z,8.83
2022-08-22T04:25:28.046Z,7.17
2022-08-22T04:28:19.489Z,7.80
2022-08-22T04:30:56.413Z,7.77
2022-08-22T04:33:26.513Z,9.87
2022-08-22T04:36:03.440Z,10.70
2022-08-22T04:38:42.937Z,10.93
2022-08-22T04:41:18.451Z,12.07
2022-08-22T04:43:53.137Z,10.60
2022-08-22T04:46:45.551Z,9.83
2022-08-22T04:49:35.268Z,12.10
2022-08-22T04:52:15.550Z,8.93
2022-08-22T04:55:21.524Z,7.13
2022-08-22T04:58:06.452Z,15.83
2022-08-22T05:01:16.806Z,8.20
2022-08-22T05:03:58.225Z,9.80
2022-08-22T05:06:29.042Z,6.63
2022-08-22T05:09:01.282Z,9.40
2022-08-22T05:11:30.490Z,7.33
2022-08-22T05:14:02.230Z,11.60
2022-08-22T05:16:34.467Z,7.17
2022-08-22T05:19:08.144Z,8.90
2022-08-22T05:21:40.623Z,8.97
2022-08-22T05:24:28.049Z,9.83
2022-08-22T05:27:01.677Z,8.37
2022-08-22T05:29:31.475Z,7.73
2022-08-22T05:32:03.596Z,10.90
2022-08-22T05:34:40.124Z,8.67
2022-08-22T05:37:24.546Z,11.50
2022-08-22T05:39:57.980Z,7.43
2022-08-22T05:42:34.432Z,10.27
2022-08-22T05:45:03.858Z,8.13
2022-08-22T05:47:33.760Z,7.50
2022-08-22T05:50:07.184Z,8.00
2022-08-22T05:52:52.716Z,6.53
2022-08-22T05:55:22.219Z,7.30
2022-08-22T05:58:09.555Z,9.30
2022-08-22T06:00:42.146Z,7.03
2022-08-22T06:03:26.695Z,6.95
2022-08-22T06:05:57.449Z,7.80
2022-08-22T06:08:31.904Z,5.00
2022-08-22T06:11:05.703Z,4.65
2022-08-22T06:13:41.310Z,4.90
2022-08-22T06:16:11.952Z,5.15
2022-08-22T06:18:41.347Z,4.90
2022-08-22T06:21:13.507Z,7.60
2022-08-22T06:23:56.752Z,5.97
2022-08-22T06:26:28.479Z,5.65
2022-08-22T06:29:00.563Z,6.32
2022-08-22T06:31:43.571Z,4.40
2022-08-22T06:34:31.162Z,6.82
2022-08-22T06:37:02.444Z,6.28
2022-08-22T06:39:35.817Z,4.90
2022-08-22T06:42:05.841Z,6.00
2022-08-22T06:44:43.390Z,5.10
2022-08-22T06:47:24.805Z,4.90
2022-08-22T06:49:57.677Z,5.38
2022-08-22T06:52:27.323Z,4.10
2022-08-22T06:55:09.299Z,6.35
2022-08-22T06:57:49.006Z,4.70
2022-08-22T07:00:17.452Z,6.75
2022-08-22T07:02:48.948Z,5.32
2022-08-22T07:05:26.366Z,6.57
2022-08-22T07:07:53.323Z,6.63
2022-08-22T07:10:22.586Z,4.40
2022-08-22T07:12:53.267Z,4.32
2022-08-22T07:15:37.194Z,4.22
2022-08-22T07:18:17.769Z,4.72
2022-08-22T07:20:51.000Z,6.53
2022-08-22T07:23:34.570Z,4.47
2022-08-22T07:26:04.310Z,4.40
2022-08-22T07:28:57.930Z,6.40
2022-08-22T07:31:40.396Z,6.10
2022-08-22T07:34:23.139Z,5.90
2022-08-22T07:37:08.374Z,5.13
2022-08-22T07:39:53.805Z,8.07
2022-08-22T07:42:58.663Z,7.50
2022-08-22T07:45:35.195Z,6.93
2022-08-22T07:49:08.097Z,6.35
2022-08-22T07:52:05.128Z,7.20
2022-08-22T07:54:33.157Z,6.20
2022-08-22T07:57:08.080Z,5.72
2022-08-22T07:59:39.315Z,6.65
2022-08-22T08:02:12.211Z,9.27
2022-08-22T08:04:41.311Z,5.90
2022-08-22T08:07:11.924Z,7.05
2022-08-22T08:09:44.551Z,6.20
2022-08-22T08:12:12.603Z,9.55
2022-08-22T08:14:46.013Z,8.30
2022-08-22T08:17:32.264Z,9.18
2022-08-22T08:20:06.041Z,9.65
2022-08-22T08:22:34.015Z,7.32
2022-08-22T08:25:02.689Z,8.43
2022-08-22T08:27:52.641Z,8.00
2022-08-22T08:30:38.646Z,8.70
2022-08-22T08:33:25.349Z,6.68
2022-08-22T08:36:16.601Z,7.93
2022-08-22T08:38:58.187Z,6.15
2022-08-22T08:41:36.851Z,6.30
2022-08-22T08:44:03.694Z,6.03
2022-08-22T08:46:55.879Z,7.90
2022-08-22T08:49:38.751Z,4.82
2022-08-22T08:52:28.496Z,4.18
2022-08-22T08:55:02.334Z,5.38
2022-08-22T08:58:17.674Z,5.20
2022-08-22T09:01:02.091Z,3.10
2022-08-22T09:03:59.150Z,4.10
2022-08-22T09:06:52.735Z,3.60
2022-08-22T09:09:55.598Z,3.42
2022-08-22T09:12:36.732Z,6.80
2022-08-22T09:16:04.288Z,3.35
2022-08-22T09:18:53.903Z,3.88
2022-08-22T09:21:38.979Z,4.32
2022-08-22T09:24:08.454Z,5.20
2022-08-22T09:27:13.963Z,3.35
2022-08-22T09:30:05.084Z,3.35
2022-08-22T09:32:44.485Z,4.15
2022-08-22T09:35:31.080Z,3.78
2022-08-22T09:38:26.674Z,3.33
2022-08-22T09:41:11.437Z,5.10
2022-08-22T09:43:45.691Z,6.50
2022-08-22T09:46:32.004Z,6.18
2022-08-22T09:49:13.138Z,3.25
2022-08-22T09:51:45.036Z,4.32
2022-08-22T09:54:23.117Z,4.38
2022-08-22T09:56:56.630Z,4.05
2022-08-22T09:59:42.870Z,5.45
2022-08-22T10:02:31.576Z,4.88
2022-08-22T10:05:35.149Z,4.55
2022-08-22T10:08:14.630Z,3.92
2022-08-22T10:11:24.048Z,5.45
2022-08-22T10:14:01.514Z,6.00
2022-08-22T10:16:34.687Z,3.15
2022-08-22T10:19:24.610Z,3.33
2022-08-22T10:22:14.593Z,4.40
2022-08-22T10:25:10.613Z,3.88
2022-08-22T10:27:40.892Z,3.67
2022-08-22T10:30:16.438Z,5.93
2022-08-22T10:32:49.689Z,4.18
2022-08-22T10:35:22.713Z,4.57
2022-08-22T10:38:06.809Z,5.03
2022-08-22T10:40:59.518Z,5.20
2022-08-22T10:43:49.801Z,4.43
2022-08-22T10:46:39.015Z,3.78
2022-08-22T10:49:36.894Z,2.97
2022-08-22T10:52:15.773Z,3.53
2022-08-22T10:55:01.926Z,7.10
2022-08-22T10:58:04.782Z,4.30
2022-08-22T11:00:59.991Z,2.95
2022-08-22T11:04:05.151Z,3.95
2022-08-22T11:06:46.784Z,7.60
2022-08-22T11:09:36.832Z,3.17
2022-08-22T11:12:16.040Z,11.23
2022-08-22T11:15:05.106Z,5.60
2022-08-22T11:17:41.635Z,4.72
2022-08-22T11:20:19.583Z,3.72
2022-08-22T11:23:05.151Z,4.13
2022-08-22T11:25:52.454Z,4.60
2022-08-22T11:28:42.271Z,7.78
2022-08-22T11:31:16.343Z,3.00
2022-08-22T11:33:54.886Z,5.18
2022-08-22T11:36:37.247Z,5.80
2022-08-22T11:39:19.185Z,5.45
2022-08-22T11:41:55.002Z,3.00
2022-08-22T11:44:31.282Z,2.47
2022-08-22T11:47:01.878Z,2.60
2022-08-22T11:49:43.897Z,3.05
2022-08-22T11:52:39.491Z,3.35
2022-08-22T11:55:16.761Z,2.70
2022-08-22T11:57:48.103Z,7.57
2022-08-22T12:00:25.311Z,5.75
2022-08-22T12:03:23.341Z,2.40
2022-08-22T12:06:19.094Z,4.63
2022-08-22T12:08:51.919Z,3.38
2022-08-22T12:11:33.034Z,3.92
2022-08-22T12:14:06.612Z,5.15
2022-08-22T12:16:48.910Z,6.32
2022-08-22T12:19:32.691Z,2.78
2022-08-22T12:22:14.838Z,4.60
2022-08-22T12:25:05.882Z,5.03
2022-08-22T12:27:57.045Z,4.15
2022-08-22T12:31:05.576Z,3.30
2022-08-22T12:33:52.229Z,2.72
2022-08-22T12:36:38.451Z,4.93
2022-08-22T12:39:30.720Z,4.95
2022-08-22T12:42:06.293Z,4.35
2022-08-22T12:44:57.573Z,4.32
2022-08-22T12:47:37.380Z,2.75
2022-08-22T12:50:43.761Z,2.03
2022-08-22T12:53:54.479Z,4.43
2022-08-22T12:56:47.471Z,2.85
2022-08-22T12:59:29.470Z,2.70
2022-08-22T13:02:02.358Z,1.95
2022-08-22T13:04:34.256Z,2.58
2022-08-22T13:07:32.915Z,1.58
2022-08-22T13:10:22.382Z,3.30
2022-08-22T13:12:53.966Z,1.30
2022-08-22T13:15:20.900Z,1.60
2022-08-22T13:17:51.910Z,2.75
2022-08-22T13:20:31.132Z,2.30
2022-08-22T13:23:01.096Z,3.25
2022-08-22T13:25:30.904Z,3.75
2022-08-22T13:28:01.245Z,3.67
2022-08-22T13:30:37.454Z,1.20
2022-08-22T13:33:10.218Z,2.88
2022-08-22T13:35:54.831Z,2.55
2022-08-22T13:38:33.971Z,2.30
2022-08-22T13:41:03.295Z,1.33
2022-08-22T13:43:54.873Z,2.95
2022-08-22T13:46:28.194Z,2.45
2022-08-22T13:49:00.773Z,2.25
2022-08-22T13:51:36.360Z,4.30
2022-08-22T13:54:40.242Z,3.30
2022-08-22T13:57:07.629Z,2.65
2022-08-22T14:00:06.575Z,4.78
2022-08-22T14:03:08.000Z,2.85
2022-08-22T14:05:38.953Z,3.50
2022-08-22T14:08:32.110Z,1.20
2022-08-22T14:11:11.293Z,3.40
2022-08-22T14:13:49.127Z,6.18
2022-08-22T14:16:39.881Z,4.78
2022-08-22T14:19:15.546Z,2.78
2022-08-22T14:21:42.435Z,1.85
2022-08-22T14:24:31.482Z,2.53
2022-08-22T14:27:05.646Z,2.60
2022-08-22T14:29:59.409Z,4.03
2022-08-22T14:32:29.711Z,5.00
2022-08-22T14:35:29.232Z,1.98
2022-08-22T14:38:17.319Z,2.15
2022-08-22T14:40:45.574Z,3.47
2022-08-22T14:43:45.530Z,3.95
2022-08-22T14:46:21.831Z,4.03
2022-08-22T14:48:55.957Z,2.40
2022-08-22T14:51:26.586Z,3.10
2022-08-22T14:54:10.140Z,4.05
2022-08-22T14:56:42.799Z,2.97
2022-08-22T14:59:23.865Z,3.17
2022-08-22T15:01:57.631Z,3.35
2022-08-22T15:04:33.798Z,3.63
2022-08-22T15:07:02.440Z,1.73
2022-08-22T15:09:32.062Z,2.92
2022-08-22T15:12:01.580Z,1.88
2022-08-22T15:14:37.956Z,3.15
2022-08-22T15:17:09.197Z,2.90
2022-08-22T15:19:41.066Z,5.15
2022-08-22T15:22:13.761Z,3.28
2022-08-22T15:24:54.957Z,2.53
2022-08-22T15:27:25.801Z,2.42
2022-08-22T15:30:02.573Z,1.73
2022-08-22T15:32:35.422Z,2.15
2022-08-22T15:35:17.769Z,1.00
2022-08-22T15:37:56.031Z,1.90
2022-08-22T15:40:34.815Z,3.00
2022-08-22T15:43:22.439Z,3.53
2022-08-22T15:46:07.303Z,3.28
2022-08-22T15:48:39.127Z,1.27
2022-08-22T15:51:13.562Z,1.42
2022-08-22T15:54:16.117Z,2.10
2022-08-22T15:57:12.814Z,1.52
2022-08-22T15:59:53.895Z,3.35
2022-08-22T16:02:40.225Z,2.88
2022-08-22T16:05:10.618Z,2.55
2022-08-22T16:07:37.411Z,2.88
2022-08-22T16:10:31.488Z,3.85
2022-08-22T16:13:32.279Z,2.53
2022-08-22T16:16:13.460Z,1.80
2022-08-22T16:18:40.223Z,4.05
2022-08-22T16:21:09.008Z,1.90
2022-08-22T16:23:54.056Z,1.42
2022-08-22T16:26:36.997Z,1.52
2022-08-22T16:29:04.013Z,1.98
2022-08-22T16:31:58.015Z,3.35
2022-08-22T16:34:38.353Z,4.57
2022-08-22T16:37:14.767Z,2.30
2022-08-22T16:39:48.886Z,2.45
2022-08-22T16:42:20.751Z,5.57
2022-08-22T16:44:56.594Z,5.63
2022-08-22T16:47:32.773Z,2.75
2022-08-22T16:50:09.437Z,3.33
2022-08-22T16:53:05.558Z,1.55
2022-08-22T16:55:35.764Z,2.28
2022-08-22T16:58:14.582Z,5.85
2022-08-22T17:01:15.472Z,1.75
2022-08-22T17:04:25.514Z,2.92
2022-08-22T17:07:06.833Z,5.15
2022-08-22T17:09:49.278Z,3.67
2022-08-22T17:12:33.343Z,2.22
2022-08-22T17:15:24.333Z,3.08
2022-08-22T17:18:28.586Z,3.60
2022-08-22T17:21:36.550Z,3.78
2022-08-22T17:24:33.779Z,2.17
2022-08-22T17:27:06.018Z,4.15
2022-08-22T17:29:52.039Z,3.47
2022-08-22T17:32:28.042Z,2.15
2022-08-22T17:35:16.923Z,4.05
2022-08-22T17:38:07.854Z,3.88
2022-08-22T17:40:38.242Z,2.83
2022-08-22T17:43:19.043Z,2.55
2022-08-22T17:45:55.387Z,3.17
2022-08-22T17:49:03.870Z,1.75
2022-08-22T17:51:39.182Z,2.17
2022-08-22T17:54:08.828Z,2.58
2022-08-22T17:57:00.339Z,1.92
2022-08-22T17:59:59.694Z,2.97
2022-08-22T18:02:26.611Z,2.42
2022-08-22T18:05:17.959Z,3.25
2022-08-22T18:07:44.789Z,2.25
2022-08-22T18:10:17.321Z,2.35
2022-08-22T18:12:56.455Z,3.92
2022-08-22T18:15:30.897Z,1.67
2022-08-22T18:18:09.646Z,3.00
2022-08-22T18:20:59.578Z,1.58
2022-08-22T18:23:39.872Z,2.90
2022-08-22T18:26:24.611Z,1.80
2022-08-22T18:29:11.126Z,2.75
2022-08-22T18:32:05.000Z,1.60
2022-08-22T18:34:31.730Z,4.05
2022-08-22T18:37:35.380Z,2.95
2022-08-22T18:40:08.490Z,2.75
2022-08-22T18:42:44.273Z,2.95
2022-08-22T18:45:44.034Z,3.75
2022-08-22T18:48:19.306Z,1.52
2022-08-22T18:50:47.553Z,1.63
2022-08-22T18:53:37.755Z,3.22
2022-08-22T18:56:45.633Z,4.07
2022-08-22T18:59:37.115Z,2.45
2022-08-22T19:02:56.063Z,3.72
2022-08-22T19:05:44.766Z,2.58
2022-08-22T19:08:36.408Z,5.03
2022-08-22T19:11:37.172Z,1.70
2022-08-22T19:14:22.571Z,3.92
2022-08-22T19:17:07.745Z,2.70
2022-08-22T19:20:08.345Z,3.92
2022-08-22T19:22:36.885Z,3.38
2022-08-22T19:25:11.267Z,4.68
2022-08-22T19:27:42.228Z,4.65
2022-08-22T19:30:45.641Z,5.65
2022-08-22T19:33:39.988Z,7.85
2022-08-22T19:36:11.336Z,2.72
2022-08-22T19:39:00.024Z,3.97
2022-08-22T19:41:45.856Z,5.15
2022-08-22T19:44:33.446Z,4.88
2022-08-22T19:47:07.980Z,3.38
2022-08-22T19:49:41.662Z,1.80
2022-08-22T19:52:20.027Z,3.50
2022-08-22T19:55:12.901Z,2.50
2022-08-22T19:58:02.642Z,3.55
2022-08-22T20:00:53.932Z,4.03
2022-08-22T20:03:42.076Z,3.78
2022-08-22T20:06:44.874Z,3.83
2022-08-22T20:09:44.361Z,5.45
2022-08-22T20:12:15.720Z,5.15
2022-08-22T20:14:46.073Z,3.95
2022-08-22T20:17:26.577Z,2.92
2022-08-22T20:20:24.515Z,3.05
2022-08-22T20:23:15.810Z,3.45
2022-08-22T20:25:51.104Z,4.72
2022-08-22T20:28:45.312Z,3.17
2022-08-22T20:31:23.300Z,2.03
2022-08-22T20:33:57.759Z,2.83
2022-08-22T20:36:27.838Z,2.70
2022-08-22T20:39:01.700Z,3.15
2022-08-22T20:41:40.885Z,2.47
2022-08-22T20:44:17.022Z,3.03
2022-08-22T20:47:11.537Z,2.75
2022-08-22T20:49:56.554Z,4.38
2022-08-22T20:52:33.991Z,6.28
2022-08-22T20:55:12.059Z,4.57
2022-08-22T20:57:56.158Z,2.55
2022-08-22T21:00:35.481Z,3.67
2022-08-22T21:03:02.609Z,2.45
2022-08-22T21:05:37.243Z,3.17
2022-08-22T21:08:14.349Z,10.23
2022-08-22T21:11:00.970Z,2.75
2022-08-22T21:13:32.507Z,2.63
2022-08-22T21:16:19.209Z,4.18
2022-08-22T21:18:53.735Z,5.72
2022-08-22T21:21:25.266Z,3.05
2022-08-22T21:23:57.423Z,4.75
2022-08-22T21:26:31.507Z,6.28
2022-08-22T21:29:02.899Z,4.47
2022-08-22T21:31:52.970Z,3.45
2022-08-22T21:34:24.762Z,3.78
2022-08-22T21:36:54.842Z,2.88
2022-08-22T21:39:27.103Z,3.80
2022-08-22T21:42:11.506Z,2.88
2022-08-22T21:44:59.403Z,2.80
2022-08-22T21:47:31.881Z,5.03
2022-08-22T21:50:13.296Z,7.85
2022-08-22T21:52:41.601Z,4.20
2022-08-22T21:55:15.939Z,8.02
2022-08-22T21:57:43.300Z,5.22
2022-08-22T22:00:52.955Z,6.05
2022-08-22T22:03:23.295Z,7.20
2022-08-22T22:05:54.813Z,3.88
2022-08-22T22:08:21.718Z,2.95
2022-08-22T22:10:49.820Z,4.13
2022-08-22T22:13:19.242Z,8.20
2022-08-22T22:15:48.455Z,3.87
2022-08-22T22:18:22.644Z,5.27
2022-08-22T22:20:51.870Z,3.37
2022-08-22T22:23:19.294Z,5.47
2022-08-22T22:25:47.414Z,4.53
2022-08-22T22:28:34.569Z,5.97
2022-08-22T22:31:01.723Z,6.97
2022-08-22T22:33:32.197Z,4.40
2022-08-22T22:36:04.921Z,4.43
2022-08-22T22:38:32.314Z,8.85
2022-08-22T22:40:59.304Z,3.78
2022-08-22T22:43:28.082Z,3.53
2022-08-22T22:45:55.046Z,4.17
2022-08-22T22:48:24.726Z,4.15
2022-08-22T22:50:53.604Z,8.93
2022-08-22T22:53:21.469Z,5.47
2022-08-22T22:56:07.502Z,6.30
2022-08-22T22:58:37.030Z,4.27
2022-08-22T23:01:18.992Z,4.93
2022-08-22T23:03:46.882Z,5.07
2022-08-22T23:06:19.891Z,3.97
2022-08-22T23:08:47.646Z,6.40
2022-08-22T23:11:21.461Z,4.43
2022-08-22T23:13:48.543Z,5.90
2022-08-22T23:16:19.334Z,3.87
2022-08-22T23:18:47.195Z,6.43
2022-08-22T23:21:23.190Z,5.30
2022-08-22T23:23:51.074Z,3.60
2022-08-22T23:26:17.946Z,5.23
2022-08-22T23:28:44.999Z,3.67
2022-08-22T23:31:31.754Z,5.25
2022-08-22T23:34:22.790Z,4.23
2022-08-22T23:36:52.403Z,5.30
2022-08-22T23:39:21.311Z,4.43
2022-08-22T23:41:48.373Z,3.80
2022-08-22T23:44:18.331Z,3.75
2022-08-22T23:46:45.412Z,5.40
2022-08-22T23:49:12.971Z,4.03
2022-08-22T23:51:40.682Z,6.60
2022-08-22T23:54:07.686Z,4.33
2022-08-22T23:56:38.581Z,10.53
2022-08-22T23:59:11.911Z,5.30
